sensor_id;sensor_type;location;lat;lon;timestamp;P1;durP1;ratioP1;P2;durP2;ratioP2
55346;SDS011;41218;55.700;38.270;2023-07-20T00:00:31;5.77;;;1.83;;
55346;SDS011;41218;55.700;38.270;2023-07-20T00:05:31;2.97;;;1.90;;
55346;SDS011;41218;55.700;38.270;2023-07-20T00:10:32;3.73;;;1.80;;
55346;SDS011;41218;55.700;38.270;2023-07-20T00:15:32;3.80;;;1.87;;
55346;SDS011;41218;55.700;38.270;2023-07-20T00:20:33;3.72;;;1.85;;
55346;SDS011;41218;55.700;38.270;2023-07-20T00:25:34;3.67;;;1.70;;
55346;SDS011;41218;55.700;38.270;2023-07-20T00:30:35;4.57;;;1.80;;
55346;SDS011;41218;55.700;38.270;2023-07-20T00:35:38;3.88;;;2.00;;
55346;SDS011;41218;55.700;38.270;2023-07-20T00:45:40;4.50;;;2.13;;
55346;SDS011;41218;55.700;38.270;2023-07-20T00:50:41;2.78;;;1.67;;
55346;SDS011;41218;55.700;38.270;2023-07-20T01:00:44;2.13;;;1.30;;
55346;SDS011;41218;55.700;38.270;2023-07-20T01:10:59;8.07;;;1.55;;
55346;SDS011;41218;55.700;38.270;2023-07-20T01:16:10;4.05;;;1.45;;
55346;SDS011;41218;55.700;38.270;2023-07-20T01:21:12;3.08;;;1.45;;
55346;SDS011;41218;55.700;38.270;2023-07-20T01:31:39;3.42;;;1.30;;
55346;SDS011;41218;55.700;38.270;2023-07-20T01:36:42;3.20;;;1.65;;
55346;SDS011;41218;55.700;38.270;2023-07-20T01:41:44;1.70;;;1.38;;
55346;SDS011;41218;55.700;38.270;2023-07-20T01:46:45;4.00;;;1.45;;
55346;SDS011;41218;55.700;38.270;2023-07-20T01:51:46;4.13;;;1.40;;
55346;SDS011;41218;55.700;38.270;2023-07-20T01:56:46;3.13;;;1.30;;
55346;SDS011;41218;55.700;38.270;2023-07-20T02:01:47;2.03;;;1.30;;
55346;SDS011;41218;55.700;38.270;2023-07-20T02:06:47;1.87;;;1.40;;
55346;SDS011;41218;55.700;38.270;2023-07-20T02:11:48;2.60;;;1.53;;
55346;SDS011;41218;55.700;38.270;2023-07-20T02:16:48;3.50;;;1.47;;
55346;SDS011;41218;55.700;38.270;2023-07-20T02:21:54;2.72;;;1.50;;
55346;SDS011;41218;55.700;38.270;2023-07-20T02:26:54;2.03;;;1.40;;
55346;SDS011;41218;55.700;38.270;2023-07-20T02:31:55;4.70;;;1.50;;
55346;SDS011;41218;55.700;38.270;2023-07-20T02:36:55;3.30;;;1.37;;
55346;SDS011;41218;55.700;38.270;2023-07-20T02:41:57;2.85;;;1.60;;
55346;SDS011;41218;55.700;38.270;2023-07-20T02:46:58;2.70;;;1.60;;
55346;SDS011;41218;55.700;38.270;2023-07-20T02:51:59;3.17;;;1.43;;
55346;SDS011;41218;55.700;38.270;2023-07-20T02:56:59;2.88;;;1.70;;
55346;SDS011;41218;55.700;38.270;2023-07-20T03:02:01;2.95;;;1.30;;
55346;SDS011;41218;55.700;38.270;2023-07-20T03:07:01;1.90;;;1.67;;
55346;SDS011;41218;55.700;38.270;2023-07-20T03:12:03;2.85;;;1.42;;
55346;SDS011;41218;55.700;38.270;2023-07-20T03:17:05;6.75;;;1.70;;
55346;SDS011;41218;55.700;38.270;2023-07-20T03:22:05;5.10;;;1.55;;
55346;SDS011;41218;55.700;38.270;2023-07-20T03:27:06;3.33;;;1.33;;
55346;SDS011;41218;55.700;38.270;2023-07-20T03:32:07;2.63;;;1.52;;
55346;SDS011;41218;55.700;38.270;2023-07-20T03:37:07;5.43;;;2.15;;
55346;SDS011;41218;55.700;38.270;2023-07-20T03:42:08;3.20;;;1.47;;
55346;SDS011;41218;55.700;38.270;2023-07-20T03:52:10;1.60;;;1.40;;
55346;SDS011;41218;55.700;38.270;2023-07-20T03:57:10;1.77;;;1.20;;
55346;SDS011;41218;55.700;38.270;2023-07-20T04:02:11;2.97;;;1.27;;
55346;SDS011;41218;55.700;38.270;2023-07-20T04:07:12;2.28;;;1.33;;
55346;SDS011;41218;55.700;38.270;2023-07-20T04:12:12;2.33;;;1.50;;
55346;SDS011;41218;55.700;38.270;2023-07-20T04:17:13;3.20;;;1.30;;
55346;SDS011;41218;55.700;38.270;2023-07-20T04:22:13;3.92;;;1.50;;
55346;SDS011;41218;55.700;38.270;2023-07-20T04:27:15;1.48;;;1.27;;
55346;SDS011;41218;55.700;38.270;2023-07-20T04:32:16;1.75;;;1.40;;
55346;SDS011;41218;55.700;38.270;2023-07-20T04:37:17;4.20;;;1.30;;
55346;SDS011;41218;55.700;38.270;2023-07-20T04:42:17;4.03;;;1.30;;
55346;SDS011;41218;55.700;38.270;2023-07-20T04:47:18;1.60;;;1.50;;
55346;SDS011;41218;55.700;38.270;2023-07-20T04:52:19;1.95;;;1.40;;
55346;SDS011;41218;55.700;38.270;2023-07-20T04:57:19;2.17;;;1.42;;
55346;SDS011;41218;55.700;38.270;2023-07-20T05:02:23;2.45;;;1.27;;
55346;SDS011;41218;55.700;38.270;2023-07-20T05:07:24;2.45;;;1.45;;
55346;SDS011;41218;55.700;38.270;2023-07-20T05:12:24;2.30;;;1.33;;
55346;SDS011;41218;55.700;38.270;2023-07-20T05:17:25;1.58;;;1.27;;
55346;SDS011;41218;55.700;38.270;2023-07-20T05:22:25;1.90;;;1.20;;
55346;SDS011;41218;55.700;38.270;2023-07-20T05:27:26;1.75;;;1.20;;
55346;SDS011;41218;55.700;38.270;2023-07-20T05:32:27;1.92;;;1.17;;
55346;SDS011;41218;55.700;38.270;2023-07-20T05:37:27;1.52;;;1.15;;
55346;SDS011;41218;55.700;38.270;2023-07-20T05:42:28;3.90;;;1.42;;
55346;SDS011;41218;55.700;38.270;2023-07-20T05:47:28;2.00;;;1.30;;
55346;SDS011;41218;55.700;38.270;2023-07-20T05:57:29;4.20;;;2.10;;
55346;SDS011;41218;55.700;38.270;2023-07-20T06:02:30;3.20;;;1.20;;
55346;SDS011;41218;55.700;38.270;2023-07-20T06:07:32;3.35;;;1.50;;
55346;SDS011;41218;55.700;38.270;2023-07-20T06:17:34;3.33;;;1.50;;
55346;SDS011;41218;55.700;38.270;2023-07-20T06:22:34;2.28;;;1.40;;
55346;SDS011;41218;55.700;38.270;2023-07-20T06:27:35;1.27;;;1.17;;
55346;SDS011;41218;55.700;38.270;2023-07-20T06:37:35;2.40;;;1.43;;
55346;SDS011;41218;55.700;38.270;2023-07-20T06:47:38;6.07;;;1.20;;
55346;SDS011;41218;55.700;38.270;2023-07-20T06:52:39;4.65;;;1.30;;
55346;SDS011;41218;55.700;38.270;2023-07-20T06:57:41;1.60;;;1.45;;
55346;SDS011;41218;55.700;38.270;2023-07-20T07:07:41;2.13;;;1.33;;
55346;SDS011;41218;55.700;38.270;2023-07-20T07:17:42;2.40;;;1.30;;
55346;SDS011;41218;55.700;38.270;2023-07-20T07:27:45;1.13;;;1.00;;
55346;SDS011;41218;55.700;38.270;2023-07-20T07:37:46;3.03;;;0.97;;
55346;SDS011;41218;55.700;38.270;2023-07-20T07:47:47;3.77;;;1.30;;
55346;SDS011;41218;55.700;38.270;2023-07-20T07:57:49;0.90;;;0.90;;
55346;SDS011;41218;55.700;38.270;2023-07-20T08:02:50;4.18;;;1.10;;
55346;SDS011;41218;55.700;38.270;2023-07-20T08:07:51;2.35;;;1.10;;
55346;SDS011;41218;55.700;38.270;2023-07-20T08:12:52;4.50;;;1.27;;
55346;SDS011;41218;55.700;38.270;2023-07-20T08:17:52;1.58;;;1.10;;
55346;SDS011;41218;55.700;38.270;2023-07-20T08:22:56;2.28;;;1.10;;
55346;SDS011;41218;55.700;38.270;2023-07-20T08:27:58;1.65;;;1.00;;
55346;SDS011;41218;55.700;38.270;2023-07-20T08:33:01;2.22;;;1.17;;
55346;SDS011;41218;55.700;38.270;2023-07-20T08:38:01;1.17;;;0.75;;
55346;SDS011;41218;55.700;38.270;2023-07-20T08:43:02;1.88;;;1.05;;
55346;SDS011;41218;55.700;38.270;2023-07-20T08:48:03;3.28;;;1.00;;
55346;SDS011;41218;55.700;38.270;2023-07-20T08:53:05;2.67;;;0.80;;
55346;SDS011;41218;55.700;38.270;2023-07-20T08:58:07;2.97;;;0.85;;
55346;SDS011;41218;55.700;38.270;2023-07-20T09:03:10;2.05;;;1.10;;
55346;SDS011;41218;55.700;38.270;2023-07-20T09:08:11;3.97;;;1.40;;
55346;SDS011;41218;55.700;38.270;2023-07-20T09:13:15;2.00;;;1.02;;
55346;SDS011;41218;55.700;38.270;2023-07-20T09:18:30;4.85;;;1.20;;
55346;SDS011;41218;55.700;38.270;2023-07-20T09:23:35;1.63;;;1.00;;
55346;SDS011;41218;55.700;38.270;2023-07-20T09:28:43;2.78;;;1.05;;
55346;SDS011;41218;55.700;38.270;2023-07-20T09:33:48;1.58;;;1.10;;
55346;SDS011;41218;55.700;38.270;2023-07-20T09:38:50;5.72;;;1.23;;
55346;SDS011;41218;55.700;38.270;2023-07-20T09:43:50;3.55;;;1.30;;
55346;SDS011;41218;55.700;38.270;2023-07-20T09:48:51;2.45;;;1.48;;
55346;SDS011;41218;55.700;38.270;2023-07-20T09:53:56;5.45;;;1.30;;
55346;SDS011;41218;55.700;38.270;2023-07-20T09:58:57;2.47;;;1.13;;
55346;SDS011;41218;55.700;38.270;2023-07-20T10:03:58;2.58;;;1.40;;
55346;SDS011;41218;55.700;38.270;2023-07-20T10:09:02;4.03;;;1.10;;
55346;SDS011;41218;55.700;38.270;2023-07-20T10:14:04;1.55;;;1.20;;
55346;SDS011;41218;55.700;38.270;2023-07-20T10:19:11;3.58;;;1.48;;
55346;SDS011;41218;55.700;38.270;2023-07-20T10:24:21;1.45;;;1.15;;
55346;SDS011;41218;55.700;38.270;2023-07-20T10:29:22;3.70;;;1.30;;
55346;SDS011;41218;55.700;38.270;2023-07-20T10:34:24;3.80;;;1.50;;
55346;SDS011;41218;55.700;38.270;2023-07-20T10:39:25;3.10;;;1.60;;
55346;SDS011;41218;55.700;38.270;2023-07-20T10:44:27;6.30;;;1.58;;
55346;SDS011;41218;55.700;38.270;2023-07-20T10:49:28;3.45;;;1.20;;
55346;SDS011;41218;55.700;38.270;2023-07-20T11:04:39;3.20;;;1.38;;
55346;SDS011;41218;55.700;38.270;2023-07-20T11:09:41;1.75;;;1.20;;
55346;SDS011;41218;55.700;38.270;2023-07-20T11:15:03;2.65;;;1.40;;
55346;SDS011;41218;55.700;38.270;2023-07-20T11:20:04;2.03;;;1.30;;
55346;SDS011;41218;55.700;38.270;2023-07-20T11:25:06;2.00;;;1.55;;
55346;SDS011;41218;55.700;38.270;2023-07-20T11:30:19;3.28;;;1.48;;
55346;SDS011;41218;55.700;38.270;2023-07-20T11:35:20;2.10;;;1.20;;
55346;SDS011;41218;55.700;38.270;2023-07-20T11:40:20;2.25;;;1.40;;
55346;SDS011;41218;55.700;38.270;2023-07-20T11:45:22;1.52;;;1.30;;
55346;SDS011;41218;55.700;38.270;2023-07-20T11:50:22;2.10;;;1.70;;
55346;SDS011;41218;55.700;38.270;2023-07-20T11:55:23;2.17;;;1.50;;
55346;SDS011;41218;55.700;38.270;2023-07-20T12:00:24;2.00;;;1.60;;
55346;SDS011;41218;55.700;38.270;2023-07-20T12:05:25;2.38;;;1.60;;
55346;SDS011;41218;55.700;38.270;2023-07-20T12:10:28;2.70;;;1.77;;
55346;SDS011;41218;55.700;38.270;2023-07-20T12:15:30;3.63;;;1.63;;
55346;SDS011;41218;55.700;38.270;2023-07-20T12:20:32;2.03;;;1.30;;
55346;SDS011;41218;55.700;38.270;2023-07-20T12:25:44;2.50;;;1.20;;
55346;SDS011;41218;55.700;38.270;2023-07-20T12:30:46;1.58;;;1.10;;
55346;SDS011;41218;55.700;38.270;2023-07-20T12:35:51;1.40;;;1.10;;
55346;SDS011;41218;55.700;38.270;2023-07-20T12:40:56;1.73;;;1.13;;
55346;SDS011;41218;55.700;38.270;2023-07-20T12:45:57;2.97;;;1.23;;
55346;SDS011;41218;55.700;38.270;2023-07-20T12:50:58;1.40;;;1.30;;
55346;SDS011;41218;55.700;38.270;2023-07-20T12:55:59;2.58;;;1.75;;
55346;SDS011;41218;55.700;38.270;2023-07-20T13:01:00;3.20;;;1.73;;
55346;SDS011;41218;55.700;38.270;2023-07-20T13:06:00;4.80;;;1.83;;
55346;SDS011;41218;55.700;38.270;2023-07-20T13:11:01;3.63;;;1.92;;
55346;SDS011;41218;55.700;38.270;2023-07-20T13:16:02;3.33;;;1.73;;
55346;SDS011;41218;55.700;38.270;2023-07-20T13:21:02;6.38;;;2.10;;
55346;SDS011;41218;55.700;38.270;2023-07-20T13:26:04;3.20;;;2.10;;
55346;SDS011;41218;55.700;38.270;2023-07-20T13:31:06;2.63;;;2.00;;
55346;SDS011;41218;55.700;38.270;2023-07-20T13:36:08;3.40;;;1.90;;
55346;SDS011;41218;55.700;38.270;2023-07-20T13:41:09;3.33;;;1.90;;
55346;SDS011;41218;55.700;38.270;2023-07-20T13:46:10;4.22;;;2.17;;
55346;SDS011;41218;55.700;38.270;2023-07-20T13:51:10;2.53;;;1.85;;
55346;SDS011;41218;55.700;38.270;2023-07-20T13:56:11;3.17;;;1.80;;
55346;SDS011;41218;55.700;38.270;2023-07-20T14:01:11;3.40;;;1.92;;
55346;SDS011;41218;55.700;38.270;2023-07-20T14:06:12;2.42;;;1.80;;
55346;SDS011;41218;55.700;38.270;2023-07-20T14:11:13;4.60;;;1.90;;
55346;SDS011;41218;55.700;38.270;2023-07-20T14:16:14;4.15;;;1.60;;
55346;SDS011;41218;55.700;38.270;2023-07-20T14:21:18;2.42;;;1.70;;
55346;SDS011;41218;55.700;38.270;2023-07-20T14:26:20;2.83;;;1.80;;
55346;SDS011;41218;55.700;38.270;2023-07-20T14:31:21;4.32;;;1.80;;
55346;SDS011;41218;55.700;38.270;2023-07-20T14:36:21;2.88;;;1.80;;
55346;SDS011;41218;55.700;38.270;2023-07-20T14:41:22;4.18;;;2.00;;
55346;SDS011;41218;55.700;38.270;2023-07-20T14:46:23;3.78;;;1.70;;
55346;SDS011;41218;55.700;38.270;2023-07-20T14:51:24;2.30;;;1.73;;
55346;SDS011;41218;55.700;38.270;2023-07-20T14:56:24;2.40;;;1.70;;
55346;SDS011;41218;55.700;38.270;2023-07-20T15:01:25;3.75;;;1.90;;
55346;SDS011;41218;55.700;38.270;2023-07-20T15:06:25;4.30;;;1.90;;
55346;SDS011;41218;55.700;38.270;2023-07-20T15:11:26;3.47;;;1.90;;
55346;SDS011;41218;55.700;38.270;2023-07-20T15:16:27;3.80;;;2.00;;
55346;SDS011;41218;55.700;38.270;2023-07-20T15:21:27;5.53;;;1.90;;
55346;SDS011;41218;55.700;38.270;2023-07-20T15:26:30;3.88;;;1.95;;
55346;SDS011;41218;55.700;38.270;2023-07-20T15:31:31;3.35;;;2.13;;
55346;SDS011;41218;55.700;38.270;2023-07-20T15:36:32;2.42;;;1.92;;
55346;SDS011;41218;55.700;38.270;2023-07-20T15:41:32;3.25;;;1.80;;
55346;SDS011;41218;55.700;38.270;2023-07-20T15:51:39;2.70;;;2.00;;
55346;SDS011;41218;55.700;38.270;2023-07-20T15:56:42;3.47;;;1.70;;
55346;SDS011;41218;55.700;38.270;2023-07-20T16:01:44;2.80;;;1.65;;
55346;SDS011;41218;55.700;38.270;2023-07-20T16:06:44;3.45;;;1.70;;
55346;SDS011;41218;55.700;38.270;2023-07-20T16:11:45;3.38;;;1.70;;
55346;SDS011;41218;55.700;38.270;2023-07-20T16:16:46;2.95;;;1.58;;
55346;SDS011;41218;55.700;38.270;2023-07-20T16:21:46;3.72;;;1.67;;
55346;SDS011;41218;55.700;38.270;2023-07-20T16:26:47;1.98;;;1.77;;
55346;SDS011;41218;55.700;38.270;2023-07-20T16:31:47;4.32;;;1.85;;
55346;SDS011;41218;55.700;38.270;2023-07-20T16:36:48;5.82;;;1.65;;
55346;SDS011;41218;55.700;38.270;2023-07-20T16:41:48;3.42;;;1.58;;
55346;SDS011;41218;55.700;38.270;2023-07-20T16:46:49;4.28;;;1.60;;
55346;SDS011;41218;55.700;38.270;2023-07-20T16:56:50;2.53;;;1.50;;
55346;SDS011;41218;55.700;38.270;2023-07-20T17:06:54;2.28;;;1.45;;
55346;SDS011;41218;55.700;38.270;2023-07-20T17:16:55;2.00;;;1.50;;
55346;SDS011;41218;55.700;38.270;2023-07-20T17:26:57;1.75;;;1.40;;
55346;SDS011;41218;55.700;38.270;2023-07-20T17:36:58;3.47;;;1.50;;
55346;SDS011;41218;55.700;38.270;2023-07-20T17:41:59;3.42;;;1.50;;
55346;SDS011;41218;55.700;38.270;2023-07-20T17:52:00;1.43;;;1.30;;
55346;SDS011;41218;55.700;38.270;2023-07-20T18:02:01;2.27;;;1.50;;
55346;SDS011;41218;55.700;38.270;2023-07-20T18:07:03;4.18;;;1.40;;
55346;SDS011;41218;55.700;38.270;2023-07-20T18:17:04;2.40;;;1.53;;
55346;SDS011;41218;55.700;38.270;2023-07-20T18:22:05;2.70;;;1.50;;
55346;SDS011;41218;55.700;38.270;2023-07-20T18:32:06;3.73;;;1.80;;
55346;SDS011;41218;55.700;38.270;2023-07-20T18:42:07;2.33;;;1.73;;
55346;SDS011;41218;55.700;38.270;2023-07-20T18:52:09;4.60;;;2.00;;
55346;SDS011;41218;55.700;38.270;2023-07-20T19:02:10;3.50;;;1.90;;
55346;SDS011;41218;55.700;38.270;2023-07-20T19:07:10;4.50;;;2.10;;
55346;SDS011;41218;55.700;38.270;2023-07-20T19:12:11;4.20;;;1.92;;
55346;SDS011;41218;55.700;38.270;2023-07-20T19:17:13;6.20;;;2.10;;
55346;SDS011;41218;55.700;38.270;2023-07-20T19:22:14;4.40;;;2.15;;
55346;SDS011;41218;55.700;38.270;2023-07-20T19:27:16;2.30;;;1.90;;
55346;SDS011;41218;55.700;38.270;2023-07-20T19:32:16;4.68;;;2.17;;
55346;SDS011;41218;55.700;38.270;2023-07-20T19:37:17;3.05;;;2.03;;
55346;SDS011;41218;55.700;38.270;2023-07-20T19:42:18;3.90;;;2.25;;
55346;SDS011;41218;55.700;38.270;2023-07-20T19:47:18;3.40;;;1.90;;
55346;SDS011;41218;55.700;38.270;2023-07-20T19:52:19;3.08;;;2.25;;
55346;SDS011;41218;55.700;38.270;2023-07-20T19:57:19;5.07;;;2.23;;
55346;SDS011;41218;55.700;38.270;2023-07-20T20:02:20;4.47;;;2.17;;
55346;SDS011;41218;55.700;38.270;2023-07-20T20:07:20;3.00;;;2.20;;
55346;SDS011;41218;55.700;38.270;2023-07-20T20:12:21;6.75;;;2.30;;
55346;SDS011;41218;55.700;38.270;2023-07-20T20:17:24;5.97;;;2.92;;
55346;SDS011;41218;55.700;38.270;2023-07-20T20:27:26;5.13;;;2.67;;
55346;SDS011;41218;55.700;38.270;2023-07-20T20:32:26;4.93;;;2.78;;
55346;SDS011;41218;55.700;38.270;2023-07-20T20:37:27;4.97;;;2.80;;
55346;SDS011;41218;55.700;38.270;2023-07-20T20:42:27;4.97;;;2.77;;
55346;SDS011;41218;55.700;38.270;2023-07-20T20:47:28;4.15;;;2.92;;
55346;SDS011;41218;55.700;38.270;2023-07-20T20:52:29;5.38;;;3.35;;
55346;SDS011;41218;55.700;38.270;2023-07-20T20:57:30;7.53;;;3.00;;
55346;SDS011;41218;55.700;38.270;2023-07-20T21:02:30;5.22;;;3.03;;
55346;SDS011;41218;55.700;38.270;2023-07-20T21:07:31;4.13;;;2.60;;
55346;SDS011;41218;55.700;38.270;2023-07-20T21:12:32;4.68;;;3.00;;
55346;SDS011;41218;55.700;38.270;2023-07-20T21:17:34;5.68;;;3.42;;
55346;SDS011;41218;55.700;38.270;2023-07-20T21:22:35;6.25;;;3.15;;
55346;SDS011;41218;55.700;38.270;2023-07-20T21:27:38;7.32;;;3.20;;
55346;SDS011;41218;55.700;38.270;2023-07-20T21:32:41;6.15;;;3.38;;
55346;SDS011;41218;55.700;38.270;2023-07-20T21:37:41;5.35;;;3.20;;
55346;SDS011;41218;55.700;38.270;2023-07-20T21:42:42;9.83;;;3.20;;
55346;SDS011;41218;55.700;38.270;2023-07-20T21:47:43;5.85;;;3.40;;
55346;SDS011;41218;55.700;38.270;2023-07-20T21:52:43;6.28;;;4.00;;
55346;SDS011;41218;55.700;38.270;2023-07-20T21:57:44;5.30;;;3.30;;
55346;SDS011;41218;55.700;38.270;2023-07-20T22:02:45;6.37;;;3.30;;
55346;SDS011;41218;55.700;38.270;2023-07-20T22:07:45;5.47;;;3.50;;
55346;SDS011;41218;55.700;38.270;2023-07-20T22:12:46;4.60;;;3.20;;
55346;SDS011;41218;55.700;38.270;2023-07-20T22:17:47;5.30;;;3.13;;
55346;SDS011;41218;55.700;38.270;2023-07-20T22:22:48;4.80;;;3.33;;
55346;SDS011;41218;55.700;38.270;2023-07-20T22:27:48;4.37;;;3.20;;
55346;SDS011;41218;55.700;38.270;2023-07-20T22:32:49;4.83;;;2.87;;
55346;SDS011;41218;55.700;38.270;2023-07-20T22:37:51;7.70;;;3.43;;
55346;SDS011;41218;55.700;38.270;2023-07-20T22:42:52;6.78;;;3.30;;
55346;SDS011;41218;55.700;38.270;2023-07-20T22:47:53;8.07;;;3.17;;
55346;SDS011;41218;55.700;38.270;2023-07-20T22:52:53;6.50;;;3.57;;
55346;SDS011;41218;55.700;38.270;2023-07-20T22:57:54;6.97;;;3.37;;
55346;SDS011;41218;55.700;38.270;2023-07-20T23:02:55;6.40;;;3.50;;
55346;SDS011;41218;55.700;38.270;2023-07-20T23:07:55;8.70;;;3.40;;
55346;SDS011;41218;55.700;38.270;2023-07-20T23:12:56;5.88;;;3.47;;
55346;SDS011;41218;55.700;38.270;2023-07-20T23:17:57;8.85;;;3.90;;
55346;SDS011;41218;55.700;38.270;2023-07-20T23:22:58;7.97;;;3.60;;
55346;SDS011;41218;55.700;38.270;2023-07-20T23:27:58;7.77;;;3.63;;
55346;SDS011;41218;55.700;38.270;2023-07-20T23:32:59;6.50;;;3.63;;
55346;SDS011;41218;55.700;38.270;2023-07-20T23:38:00;10.57;;;3.72;;
55346;SDS011;41218;55.700;38.270;2023-07-20T23:43:01;5.55;;;3.40;;
55346;SDS011;41218;55.700;38.270;2023-07-20T23:53:03;6.47;;;3.73;;
55346;SDS011;41218;55.700;38.270;2023-07-20T23:58:03;8.27;;;3.97;;
